Ns Concord — A8FD7 — position and weather

sailwx.info

Track history (hours):
 
Tides and Currents Weather Stations Pressure Air Temp Water Temp Dewpoint Dewpoint Depression Visibility Wind Speed Wind Dir Waves Ship Positions

Ns Concord

Last reported at 2018-Apr-20 14:47 UTC. Time now 2018-Apr-20 16:27 UTC.
Position N 25°30' W 079°34'.

Length 243 m; draft 10.5 m.

Type: Tanker. MMSI: 636012382.

Date/timePositionNaut miles runAvg speedWind from/ knotsBaromVisibWave heightAir tempDewpointWater temp
2018-Apr-20 14:47N 25°30' W 079°34'310.5
2018-Apr-20 14:29N 25°33' W 079°34'510.5
2018-Apr-20 14:00N 25°38' W 079°33'610.6
2018-Apr-20 13:29N 25°43' W 079°32'510.9
2018-Apr-20 13:00N 25°48' W 079°31'510.8
2018-Apr-20 12:30N 25°54' W 079°30'610.7
2018-Apr-20 12:00N 25°59' W 079°30'510.8
2018-Apr-20 11:30N 26°05' W 079°29'611.1
2018-Apr-20 11:00N 26°10' W 079°28'5 9.0
2018-Apr-20 10:30N 26°13' W 079°24'4912.6
2018-Apr-20 06:37N 26°07' W 078°30'212.8
2018-Apr-20 06:30N 26°07' W 078°29'  
Track history (hours):
 
Tides and Currents Weather Stations Pressure Air Temp Water Temp Dewpoint Dewpoint Depression Visibility Wind Speed Wind Dir Waves Ship Positions

Ns Concord

Last reported at 2018-Apr-20 14:47 UTC. Time now 2018-Apr-20 16:27 UTC.
Position N 25°30' W 079°34'.

Length 243 m; draft 10.5 m.

Type: Tanker. MMSI: 636012382.

Date/timePositionNaut miles runAvg speedWind from/ knotsBaromVisibWave heightAir tempDewpointWater temp
2018-Apr-20 14:47N 25°30' W 079°34'310.5
2018-Apr-20 14:29N 25°33' W 079°34'510.5
2018-Apr-20 14:00N 25°38' W 079°33'610.6
2018-Apr-20 13:29N 25°43' W 079°32'510.9
2018-Apr-20 13:00N 25°48' W 079°31'510.8
2018-Apr-20 12:30N 25°54' W 079°30'610.7
2018-Apr-20 12:00N 25°59' W 079°30'510.8
2018-Apr-20 11:30N 26°05' W 079°29'611.1
2018-Apr-20 11:00N 26°10' W 079°28'5 9.0
2018-Apr-20 10:30N 26°13' W 079°24'4912.6
2018-Apr-20 06:37N 26°07' W 078°30'212.8
2018-Apr-20 06:30N 26°07' W 078°29'  

Dump ship's entire track history